Rouvroy, Belgium
Current Conditions -  °F | °C
As of 9:20 PM on Sunday 25 Jan 2015 (Local Time) from ELLX Reporting Station
Light Snow Light Snow  
Wind Chill: 25°   Ceiling: 400
Heat Index: 32°   Visibility: 0.81mi
Dew Point: 32°   Wind: 8mph
Humidity: 100%   Direction: 250°WSW
Pressure: 30.36"   Gusts: NA
Location:  49.54°N, 5.49°E
Report Text: ELLX 252020Z 25007KT 230V300 1300 R24/P1500N -SN BR SCT001 BKN004 BKN024 00/00 Q1028 NOSIG
Loading
Personal Weather Stations






























Interactive Weather Map New forecast layout! Learn more

10-Day Weather Forecast

Advertisements
Track Severe Weather on mobile